Latest Weather Observations for Nerriga

IDN60801

Issued at 10:35 pm EST Friday 18 April 2014 (issued every 30 minutes, with the page automatically refreshed every 10 minutes)

About weather observations | Map of weather stations | Latest weather observations for NSW | Other Formats
Station Details ID: 069128 Name: NERRIGA AWS Lat: -35.11 Lon: 150.08 Height: 622.0 m
Data from the previous 72 hours. | See also: Recent months for locations in New South Wales
Date/Time
EST
Temp
°C
App
Temp
°C
Dew
Point
Rel
Hum
%
Delta-T
°C
Wind Press
QNH
hPa
Press
MSL
hPa
Rain
since 9 am
mm
Dir
 
Spd
km/h
Gust
km/h
Spd
kts
Gust
kts
18/10:30pm 12.9 11.3 8.0 72 2.5 WNW 6 11 3 6 1015.4 - 0.0
18/10:00pm 12.9 11.3 8.2 73 2.4 WNW 6 9 3 5 1015.5 1014.5 0.0
18/09:30pm 12.9 10.0 8.0 72 2.5 W 13 19 7 10 1015.4 - 0.0
18/09:00pm 12.8 10.2 7.7 71 2.6 WNW 11 15 6 8 1015.4 1014.4 0.0
18/08:30pm 13.8 10.8 7.8 67 3.1 WNW 13 19 7 10 1015.0 - 0.0
18/08:00pm 14.2 9.9 7.7 65 3.3 WNW 20 32 11 17 1014.7 1013.7 0.0
18/07:30pm 14.4 9.7 7.9 65 3.3 WNW 22 35 12 19 1014.3 - 0.0
18/07:00pm 14.5 9.8 7.8 64 3.4 W 22 30 12 16 1014.5 1013.5 0.0
18/06:30pm 14.8 9.3 7.6 62 3.7 W 26 35 14 19 1014.3 - 0.0
18/06:00pm 15.3 11.1 7.3 59 4.1 W 19 30 10 16 1014.2 1013.2 0.0
18/05:30pm 15.1 10.3 7.2 59 4.0 W 22 33 12 18 1014.1 - 0.0
18/05:00pm 16.4 11.2 7.1 54 4.8 WNW 24 37 13 20 1013.8 1012.8 0.0
18/04:30pm 17.1 11.2 7.5 53 5.0 WNW 28 43 15 23 1013.6 - 0.0
18/04:04pm 17.6 11.9 8.2 54 5.0 W 28 48 15 26 1013.6 - 0.0
18/04:00pm 17.5 11.0 8.1 54 5.0 W 32 48 17 26 1013.6 1012.6 0.0
18/03:30pm 18.0 11.4 7.7 51 5.4 WNW 32 44 17 24 1013.6 - 0.0
18/03:00pm 18.6 12.3 9.1 54 5.1 WNW 32 43 17 23 1013.6 1012.6 0.0
18/02:30pm 17.3 12.4 8.4 56 4.7 WNW 24 37 13 20 1013.6 - 0.0
18/02:00pm 17.9 13.0 9.8 59 4.4 W 26 41 14 22 1013.8 1012.8 0.0
18/01:30pm 17.8 14.2 9.7 59 4.4 W 19 28 10 15 1014.1 - 0.0
18/01:00pm 17.7 12.4 8.6 55 4.8 W 26 43 14 23 1014.3 1013.3 0.0
18/12:30pm 17.8 11.8 7.0 49 5.6 W 28 39 15 21 1014.6 - 0.0
18/12:00pm 17.4 13.7 9.3 59 4.4 WNW 19 26 10 14 1015.1 1014.2 0.0
18/11:30am 16.6 13.8 10.0 65 3.6 NW 15 22 8 12 1015.8 - 0.0
18/11:00am 15.9 15.0 11.3 74 2.5 NW 7 15 4 8 1016.3 1015.4 0.0
18/10:30am 14.3 13.1 11.6 84 1.5 WNW 9 15 5 8 1016.7 - 0.0
18/10:00am 12.1 11.4 10.2 88 1.0 SSW 4 9 2 5 1017.2 1016.2 0.0
18/09:30am 10.4 9.7 10.1 98 0.2 S 4 6 2 3 1017.5 - 0.0
18/09:00am 9.6 9.5 9.3 98 0.2 CALM 0 0 0 0 1017.6 1016.6 0.2
18/08:30am 8.2 7.7 7.9 98 0.1 CALM 0 0 0 0 1017.8 - 0.2
18/08:00am 6.9 6.1 6.6 98 0.1 CALM 0 0 0 0 1017.7 1016.8 0.2
18/07:30am 6.1 5.1 5.8 98 0.1 CALM 0 0 0 0 1017.7 - 0.2
18/07:00am 5.3 4.2 5.0 98 0.1 CALM 0 0 0 0 1017.6 1016.6 0.2
18/06:30am 5.3 4.2 5.0 98 0.1 CALM 0 0 0 0 1017.7 - 0.2
18/06:00am 5.2 4.1 4.9 98 0.1 ESE 0 0 0 0 1017.7 1016.8 0.2
18/05:30am 5.6 4.5 5.3 98 0.1 CALM 0 0 0 0 1017.5 - 0.2
18/05:00am 5.4 4.3 5.1 98 0.1 CALM 0 0 0 0 1017.6 1016.6 0.2
18/04:30am 5.5 4.4 5.2 98 0.1 CALM 0 0 0 0 1017.8 - 0.0
18/04:00am 5.8 4.8 5.5 98 0.1 CALM 0 0 0 0 1018.0 1017.1 0.0
18/03:30am 5.8 4.8 5.5 98 0.1 CALM 0 0 0 0 1018.1 - 0.0
18/03:00am 6.0 5.0 5.7 98 0.1 CALM 0 0 0 0 1018.2 1017.3 0.0
18/02:30am 5.5 4.4 5.2 98 0.1 CALM 0 0 0 0 1018.4 - 0.0
18/02:00am 5.8 4.8 5.5 98 0.1 CALM 0 0 0 0 1019.0 1018.0 0.0
18/01:30am 6.7 5.9 6.4 98 0.1 CALM 0 0 0 0 1019.2 - 0.0
18/01:00am 6.2 5.3 5.9 98 0.1 CALM 0 0 0 0 1019.4 1018.5 0.0
18/12:30am 6.5 5.6 6.2 98 0.1 CALM 0 0 0 0 1019.7 - 0.0
18/12:00am 7.5 6.9 7.2 98 0.1 ESE 0 0 0 0 1019.9 1019.0 0.0
 
Date/Time
EST
Temp
°C
App
Temp
°C
Dew
Point
Rel
Hum
%
Delta-T
°C
Wind Press
QNH
hPa
Press
MSL
hPa
Rain
since 9 am
mm
Dir
 
Spd
km/h
Gust
km/h
Spd
kts
Gust
kts
17/11:30pm 6.9 6.1 6.6 98 0.1 CALM 0 0 0 0 1020.1 - 0.0
17/11:00pm 7.9 7.3 7.6 98 0.1 CALM 0 0 0 0 1020.4 1019.4 0.0
17/10:30pm 6.7 5.1 6.4 98 0.1 ESE 4 4 2 2 1020.8 - 0.0
17/10:00pm 7.2 6.1 6.9 98 0.1 ESE 2 4 1 2 1021.1 1020.2 0.0
17/09:30pm 7.9 7.3 7.6 98 0.1 CALM 0 0 0 0 1021.2 - 0.0
17/09:00pm 7.9 7.0 7.6 98 0.1 ESE 2 4 1 2 1020.9 1020.0 0.0
17/08:30pm 8.7 8.0 8.4 98 0.2 ESE 2 6 1 3 1021.0 - 0.0
17/08:00pm 9.9 9.3 9.1 95 0.4 ESE 2 4 1 2 1020.9 1020.0 0.0
17/07:30pm 10.9 10.9 9.7 92 0.6 CALM 0 0 0 0 1020.6 - 0.0
17/07:00pm 11.4 11.0 9.8 90 0.8 ESE 2 4 1 2 1020.4 1019.4 0.0
17/06:30pm 11.5 10.5 8.9 84 1.3 E 4 6 2 3 1020.2 - 0.0
17/06:00pm 12.4 10.9 9.2 81 1.7 ESE 7 11 4 6 1019.9 1019.0 0.0
17/05:30pm 13.5 10.5 9.2 75 2.3 SE 15 19 8 10 1019.7 - 0.0
17/05:00pm 14.4 10.9 8.6 68 3.0 SE 17 20 9 11 1019.5 1018.6 0.0
17/04:30pm 15.8 12.7 9.0 64 3.6 SE 15 20 8 11 1019.3 - 0.0
17/04:00pm 16.7 13.6 8.7 59 4.2 ESE 15 20 8 11 1019.2 1018.3 0.0
17/03:30pm 17.7 16.3 8.8 56 4.8 SSE 6 17 3 9 1019.0 - 0.0
17/03:00pm 16.7 14.1 7.9 56 4.6 S 11 17 6 9 1019.3 1018.4 0.0
17/02:30pm 17.9 15.6 7.3 50 5.5 S 9 17 5 9 1019.3 - 0.0
17/02:00pm 16.7 13.4 4.7 45 5.9 SW 11 19 6 10 1019.5 1018.6 0.0
17/01:30pm 18.0 15.4 6.2 46 6.0 SW 9 17 5 9 1019.5 - 0.0
17/01:00pm 17.4 13.6 5.7 46 5.9 SSW 15 22 8 12 1019.8 1018.9 0.0
17/12:30pm 17.7 15.8 7.7 52 5.2 WSW 7 13 4 7 1020.0 - 0.0
17/12:00pm 17.7 15.1 7.7 52 5.2 WSW 11 19 6 10 1020.4 1019.4 0.0
17/11:30am 16.4 13.8 7.9 57 4.4 SSW 11 17 6 9 1020.9 - 0.0
17/11:00am 16.3 14.5 9.3 63 3.7 SW 9 19 5 10 1021.1 1020.2 0.0
17/10:30am 14.8 13.0 9.6 71 2.8 SW 9 15 5 8 1021.3 - 0.0
17/10:00am 13.1 11.9 10.3 83 1.5 SW 7 11 4 6 1021.4 1020.5 0.0
17/09:30am 11.2 9.9 10.0 92 0.6 WSW 7 13 4 7 1021.5 - 0.0
17/09:00am 10.0 8.8 9.5 97 0.3 SSW 6 7 3 4 1021.6 1020.7 0.2
17/08:30am 9.1 8.8 8.8 98 0.2 CALM 0 4 0 2 1021.5 - 0.2
17/08:00am 7.1 6.4 6.8 98 0.1 CALM 0 0 0 0 1021.4 1020.5 0.2
17/07:30am 5.7 4.7 5.4 98 0.1 CALM 0 2 0 1 1021.1 - 0.2
17/07:00am 4.1 2.7 3.8 98 0.1 CALM 0 0 0 0 1020.8 1019.9 0.2
17/06:30am 3.8 2.4 3.5 98 0.1 CALM 0 0 0 0 1020.4 - 0.2
17/06:00am 3.5 2.0 3.2 98 0.1 CALM 0 0 0 0 1020.0 1019.1 0.2
17/05:30am 4.3 3.0 4.0 98 0.1 CALM 0 0 0 0 1020.0 - 0.2
17/05:00am 5.8 4.4 5.5 98 0.1 S 2 6 1 3 1019.8 1018.9 0.2
17/04:30am 4.4 2.3 4.1 98 0.1 S 4 6 2 3 1019.7 - 0.0
17/04:00am 5.0 3.4 4.7 98 0.1 S 2 4 1 2 1019.7 1018.8 0.0
17/03:30am 4.3 3.0 4.0 98 0.1 CALM 0 0 0 0 1019.6 - 0.0
17/03:00am 6.0 4.3 5.7 98 0.1 S 4 6 2 3 1019.6 1018.7 0.0
17/02:30am 6.4 5.1 6.1 98 0.1 S 2 4 1 2 1019.7 - 0.0
17/02:00am 5.4 4.3 5.1 98 0.1 CALM 0 0 0 0 1019.9 1019.0 0.0
17/01:30am 5.7 4.7 5.4 98 0.1 CALM 0 0 0 0 1020.0 - 0.0
17/01:00am 6.0 5.0 5.7 98 0.1 CALM 0 0 0 0 1020.5 1019.6 0.0
17/12:30am 6.9 6.1 6.6 98 0.1 CALM 0 0 0 0 1020.6 - 0.0
17/12:00am 6.5 5.6 6.2 98 0.1 CALM 0 2 0 1 1020.7 1019.8 0.0
 
Date/Time
EST
Temp
°C
App
Temp
°C
Dew
Point
Rel
Hum
%
Delta-T
°C
Wind Press
QNH
hPa
Press
MSL
hPa
Rain
since 9 am
mm
Dir
 
Spd
km/h
Gust
km/h
Spd
kts
Gust
kts
16/11:30pm 6.6 5.4 6.3 98 0.1 SSE 2 4 1 2 1020.8 - 0.0
16/11:00pm 7.7 7.1 7.4 98 0.1 CALM 0 0 0 0 1020.9 1020.0 0.0
16/10:30pm 7.4 6.0 7.1 98 0.1 SSE 4 6 2 3 1021.0 - 0.0
16/10:00pm 7.1 5.2 6.8 98 0.1 S 6 6 3 3 1021.1 1020.2 0.0
16/09:30pm 8.1 6.5 7.8 98 0.1 S 6 7 3 4 1021.3 - 0.0
16/09:00pm 8.2 7.7 7.9 98 0.1 CALM 0 0 0 0 1021.1 1020.2 0.0
16/08:30pm 8.1 7.5 7.5 96 0.3 CALM 0 0 0 0 1020.8 - 0.0
16/08:00pm 9.4 9.1 8.8 96 0.3 CALM 0 0 0 0 1020.6 1019.7 0.0
16/07:30pm 10.6 10.3 8.7 88 1.0 CALM 0 0 0 0 1020.5 - 0.0
16/07:00pm 11.2 11.0 9.1 87 1.1 CALM 0 0 0 0 1020.2 1019.3 0.0
16/06:30pm 11.8 10.8 9.0 83 1.4 ESE 4 9 2 5 1020.0 - 0.0
16/06:00pm 12.5 9.8 9.1 80 1.8 ESE 13 17 7 9 1019.6 1018.7 0.0
16/05:30pm 12.9 11.1 9.5 80 1.8 E 9 11 5 6 1019.4 - 0.0
16/05:00pm 14.6 12.4 9.4 71 2.8 E 11 17 6 9 1019.1 1018.2 0.0
16/04:30pm 15.7 13.0 8.9 64 3.6 ESE 13 17 7 9 1018.8 - 0.0
16/04:00pm 16.7 15.3 8.7 59 4.2 SSE 6 9 3 5 1018.8 1017.8 0.0
16/03:30pm 15.6 13.8 8.1 61 3.9 S 7 9 4 5 1018.9 - 0.0
16/03:00pm 17.7 15.6 8.3 54 5.0 SSE 9 13 5 7 1019.0 1018.0 0.0
16/02:30pm 16.9 15.1 5.5 47 5.7 SSW 4 6 2 3 1019.1 - 0.0
16/02:00pm 17.6 15.0 6.2 47 5.8 S 9 13 5 7 1019.1 1018.2 0.0
16/01:30pm 16.6 15.1 6.7 52 5.0 W 4 7 2 4 1019.2 - 0.0
16/01:00pm 17.8 16.1 7.5 51 5.4 W 6 9 3 5 1019.3 1018.4 0.0
16/12:30pm 16.2 14.2 6.9 54 4.7 WSW 7 11 4 6 1019.8 - 0.0
16/12:00pm 16.8 14.9 7.4 54 4.8 S 7 13 4 7 1020.4 1019.4 0.0
16/11:30am 16.4 14.9 8.4 59 4.2 SSE 6 13 3 7 1020.8 - 0.0
16/11:00am 15.7 13.6 8.4 62 3.8 SSW 9 17 5 9 1021.2 1020.3 0.0
16/10:30am 15.1 12.8 9.0 67 3.2 S 11 24 6 13 1021.3 - 0.0
16/10:00am 14.3 11.8 8.0 66 3.2 S 11 19 6 10 1021.6 1020.7 0.0
16/09:30am 13.2 10.0 7.0 66 3.1 S 13 20 7 11 1021.9 - 0.0
16/09:00am 11.5 9.6 7.6 77 1.9 SW 7 11 4 6 1022.1 1021.2 0.0
16/08:30am 9.8 7.8 6.9 82 1.4 SSW 7 9 4 5 1022.1 - 0.0
16/08:00am 8.5 7.0 6.6 88 0.9 S 4 7 2 4 1021.8 1021.0 0.0
16/07:30am 7.2 5.6 6.3 94 0.4 SSE 4 6 2 3 1021.6 - 0.0
16/07:00am 6.5 4.3 6.2 98 0.1 SSE 7 9 4 5 1021.2 1020.3 0.0
16/06:30am 4.9 1.6 4.6 98 0.1 S 11 13 6 7 1021.0 - 0.0
16/06:00am 4.1 1.0 3.8 98 0.1 S 9 11 5 6 1020.9 1020.0 0.0
16/05:30am 4.6 2.0 4.3 98 0.1 S 7 11 4 6 1020.9 - 0.0
16/05:00am 4.3 1.7 4.0 98 0.1 S 7 9 4 5 1020.7 1019.8 0.0
16/04:30am 4.2 1.5 3.9 98 0.1 SSW 7 9 4 5 1020.8 - 0.0
16/04:00am 5.8 4.8 5.5 98 0.1 CALM 0 0 0 0 1020.9 1020.0 0.0
16/03:30am 6.0 4.6 5.6 97 0.2 SSW 2 4 1 2 1020.7 - 0.0
16/03:00am 7.0 5.0 6.3 95 0.3 SSW 6 7 3 4 1020.8 1019.9 0.0
16/02:30am 7.2 5.0 6.1 93 0.5 SSW 7 9 4 5 1020.9 - 0.0
16/02:00am 8.2 6.1 5.8 85 1.1 S 6 9 3 5 1021.2 1020.3 0.0
16/01:30am 8.7 6.6 6.0 83 1.3 S 6 6 3 3 1021.7 - 0.0
16/01:00am 8.7 6.5 6.3 85 1.1 SSE 7 9 4 5 1021.8 1021.0 0.0
16/12:30am 9.2 6.6 6.3 82 1.4 S 9 13 5 7 1022.2 - 0.0
16/12:00am 9.4 7.8 6.5 82 1.4 SSE 4 7 2 4 1022.3 1021.4 0.0
 
Date/Time
EST
Temp
°C
App
Temp
°C
Dew
Point
Rel
Hum
%
Delta-T
°C
Wind Press
QNH
hPa
Press
MSL
hPa
Rain
since 9 am
mm
Dir
 
Spd
km/h
Gust
km/h
Spd
kts
Gust
kts
15/11:30pm 10.2 7.1 7.1 81 1.5 S 13 22 7 12 1022.3 - 0.0
15/11:00pm 10.4 7.9 8.2 86 1.1 S 11 22 6 12 1022.4 1021.5 0.0

Other Formats:

Comma delimited format used in spreadsheet applications
http://www.bom.gov.au/fwo/IDN60801/IDN60801.94943.axf

JavaScript Object Notation format (JSON) in row-major order
http://www.bom.gov.au/fwo/IDN60801/IDN60801.94943.json